Latty, Ohio
Current Conditions -  °F | °C
As of 7:40 AM on Thursday 23 Oct 2014 (Local Time) from KDFI Reporting Station
Haze Haze  
Wind Chill: 31°   Ceiling: 500
Heat Index: 31°   Visibility: 1mi
Dew Point: 28°   Wind: 0mph
Humidity: 89%   Direction: NA
Pressure: 30.26"   Gusts: NA
Location:  41.09°N, 84.59°W
Report Text: KDFI 231140Z AUTO 00000KT 1SM BR VV005 M01/M02 A3026 RMK AO2 I1000 T10061022
Loading
Personal Weather Stations






























Interactive Weather Map
Tropical Storm Tracking
New forecast layout! Learn more

10-Day Weather Forecast

Advertisements
Track Severe Weather on mobile